Canefield Airport

Cloudy with light showers
26oC (79oF)

Cloudy with light showers


Winds: Easterly @ 07kts / 13km/h

Humidity: 69%

Barometric Pressure: 1015 mb

Accumulated Rainfall for February: 8.8 mm

Updated: 16:00 local time (20:00 UTC)

Douglas-Charles Airport

Cloudy and breezy
24oC (75oF)

Cloudy and breezy


Winds: East south easterly @ 12kts / 22km/h

Humidity: 80%

Barometric Pressure: 1018 mb

Accumulated Rainfall for February: 17.3 mm

Updated: 7:00 local time (11:00 UTC)

Satellite Imagery

Satellite Imagery
Click image for larger view. (Source: National Hurricane Center).

Aviation Routine Report (METAR)

Douglas-Charles: METAR TDPD 061100Z 11012KT 9999 BKN016 SCT048 24/21 Q1018=
Canefield: METAR TDCF 052000Z 10007KT 9999 -SHRA BKN017 26/20 Q1015=